This is the latest recevied weather packets stored in our database for station/object KY4LEX. If no packets are shown the sender has not sent any weather packets the latest 10 day(s).
| Time | Temp. | Humidity | Pressure | Rain* | Wind** | Luminosity | Snow |
|---|---|---|---|---|---|---|---|
| 1777934248 | 25.56° C | 39% | 1014.6 hPa | 0 mm | - | 110 W/m² | - |
| 1777933943 | 26.11° C | 40% | 1014.5 hPa | 0 mm | - | 154 W/m² | - |
| 1777933641 | 25.56° C | 39% | 1014.7 hPa | 0 mm | - | 183 W/m² | - |
| 1777933337 | 25.56° C | 40% | 1014.7 hPa | 0 mm | - | 187 W/m² | - |
| 1777933035 | 25.56° C | 41% | 1014.6 hPa | 0 mm | - | 103 W/m² | - |
| 1777932732 | 25.56° C | 41% | 1014.6 hPa | 0 mm | - | 210 W/m² | - |
| 1777932428 | 26.11° C | 41% | 1014.7 hPa | 0 mm | - | 229 W/m² | - |
| 1777932126 | 26.11° C | 41% | 1014.7 hPa | 0 mm | - | 80 W/m² | - |
| 1777931822 | 26.11° C | 39% | 1014.7 hPa | 0 mm | - | 256 W/m² | - |
| 1777931519 | 26.67° C | 38% | 1014.7 hPa | 0 mm | - | 266 W/m² | - |
| 1777931215 | 26.11° C | 40% | 1014.5 hPa | 0 mm | - | 286 W/m² | - |
| 1777930912 | 26.67° C | 39% | 1014.7 hPa | 0 mm | - | 300 W/m² | - |
| 1777930608 | 26.11° C | 39% | 1014.6 hPa | 0 mm | - | 315 W/m² | - |
| 1777930305 | 25.56° C | 42% | 1014.5 hPa | 0 mm | - | 284 W/m² | - |
| 1777930002 | 26.11° C | 40% | 1014.8 hPa | 0 mm | - | 241 W/m² | - |
| 1777929698 | 26.11° C | 40% | 1014.8 hPa | 0 mm | - | 291 W/m² | - |
| 1777929396 | 26.67° C | 39% | 1014.6 hPa | 0 mm | - | 323 W/m² | - |
| 1777929092 | 26.67° C | 39% | 1014.8 hPa | 0 mm | - | 391 W/m² | - |
| 1777928790 | 26.67° C | 42% | 1014.6 hPa | 0 mm | - | 403 W/m² | - |
| 1777928486 | 26.11° C | 40% | 1014.6 hPa | 0 mm | - | 398 W/m² | - |
| 1777928184 | 26.11° C | 40% | 1014.7 hPa | 0 mm | - | 417 W/m² | - |
| 1777927881 | 26.67° C | 41% | 1014.7 hPa | 0 mm | - | 166 W/m² | - |
| 1777927580 | 26.67° C | 42% | 1014.7 hPa | 0 mm | - | 473 W/m² | - |
| 1777927278 | 26.11° C | 41% | 1015 hPa | 0 mm | - | 482 W/m² | - |
| 1777926977 | 26.11° C | 42% | 1014.8 hPa | 0 mm | - | 508 W/m² | - |
* Rain latest hour (hover to see other rain measurements)
** Current wind speed in m/s (hover to see current wind gust speed)